Time;durP1;ratioP1;P1;durP2;ratioP2;P2;SDS_P1;SDS_P2;PMS_P1;PMS_P2;Temp;Humidity;BMP_temperature;BMP_pressure;BME280_temperature;BME280_humidity;BME280_pressure;Samples;Min_cycle;Max_cycle;Signal;HPM_P1;HPM_P2
2024/02/06 00:02:42;;;;;;;;;;;;;;;6.63;69.95;98210.22;5049932;28;19925;-93
2024/02/06 00:05:31;;;;;;;;;;;;;;;6.64;69.94;98209.13;5070699;28;20003;-93
2024/02/06 00:08:20;;;;;;;;;;;;;;;6.62;69.73;98205.91;5065653;28;20092;-93
2024/02/06 00:11:09;;;;;;;;;;;;;;;6.47;70.49;98209.47;5060505;28;19924;-94
2024/02/06 00:13:57;;;;;;;;;;;;;;;6.69;69.66;98202.91;5058361;28;19924;-93
2024/02/06 00:16:46;;;;;;;;;;;;;;;6.81;68.99;98201.47;5057474;28;19931;-93
2024/02/06 00:19:34;;;;;;;;;;;;;;;6.71;69.06;98198.00;5057535;28;19931;-94
2024/02/06 00:22:23;;;;;;;;;;;;;;;6.76;68.78;98195.28;5070122;28;20390;-93
2024/02/06 00:25:14;;;;;;;;;;;;;;;6.70;68.92;98196.41;5083586;28;19924;-93
2024/02/06 00:28:02;;;;;;;;;;;;;;;6.60;69.31;98194.56;5089791;28;19976;-92
2024/02/06 00:30:51;;;;;;;;;;;;;;;6.61;69.19;98190.81;5067988;28;19931;-94
2024/02/06 00:33:39;;;;;;;;;;;;;;;6.49;69.87;98190.31;5070847;28;20375;-93
2024/02/06 00:36:28;;;;;;;;;;;;;;;6.58;69.44;98199.44;5056109;28;19925;-93
2024/02/06 00:39:18;;;;;;;;;;;;;;;6.59;69.45;98202.94;5053897;28;19932;-92
2024/02/06 00:42:12;;;;;;;;;;;;;;;6.63;69.24;98204.81;5058001;28;20006;-93
2024/02/06 00:45:01;;;;;;;;;;;;;;;6.56;69.32;98202.44;5073915;28;19924;-93
2024/02/06 00:47:51;;;;;;;;;;;;;;;6.68;68.98;98203.97;5054337;28;19928;-93
2024/02/06 00:50:40;;;;;;;;;;;;;;;6.57;69.18;98204.03;5060500;28;20397;-94
2024/02/06 00:53:29;;;;;;;;;;;;;;;6.53;69.06;98210.25;5075266;28;19928;-94
2024/02/06 00:56:17;;;;;;;;;;;;;;;6.55;69.16;98208.09;5061198;28;19978;-93
2024/02/06 00:59:07;;;;;;;;;;;;;;;6.55;68.98;98210.78;5062840;28;19991;-94
2024/02/06 01:01:58;;;;;;;;;;;;;;;6.59;68.67;98209.16;5058173;28;19968;-94
2024/02/06 01:08:06;;;;;;;;;;;;;;;6.50;68.97;98205.44;5042401;28;19964;-58
2024/02/06 01:10:54;;;;;;;;;;;;;;;6.50;68.90;98205.44;5046387;28;19959;-59
2024/02/06 01:13:42;;;;;;;;;;;;;;;6.55;68.77;98205.38;5043996;28;19925;-58
2024/02/06 01:16:32;;;;;;;;;;;;;;;6.54;68.80;98207.28;5045989;28;19929;-59
2024/02/06 01:19:20;;;;;;;;;;;;;;;6.51;68.97;98207.03;5049006;28;20033;-58
2024/02/06 01:22:08;;;;;;;;;;;;;;;6.49;69.04;98217.28;5045840;28;20019;-58
2024/02/06 01:24:56;;;;;;;;;;;;;;;6.55;68.40;98205.38;5043586;28;19925;-58
2024/02/06 01:27:45;;;;;;;;;;;;;;;6.37;68.79;98212.22;5037245;28;19936;-58
2024/02/06 01:30:33;;;;;;;;;;;;;;;6.39;68.88;98203.84;5043651;28;19925;-61
2024/02/06 01:33:23;;;;;;;;;;;;;;;6.39;68.75;98199.28;5044857;28;20287;-58
2024/02/06 01:36:11;;;;;;;;;;;;;;;6.49;68.97;98199.19;5045780;28;20354;-58
2024/02/06 01:38:59;;;;;;;;;;;;;;;6.53;68.52;98200.28;5043010;28;20294;-58
2024/02/06 01:41:48;;;;;;;;;;;;;;;6.54;68.33;98184.88;5046923;28;20489;-57
2024/02/06 01:44:37;;;;;;;;;;;;;;;6.53;68.23;98188.66;5049672;28;19925;-58
2024/02/06 01:47:25;;;;;;;;;;;;;;;6.56;68.08;98188.13;5052345;28;19935;-58
2024/02/06 01:50:16;;;;;;;;;;;;;;;6.51;68.24;98196.25;5049393;28;20011;-61
2024/02/06 01:53:06;;;;;;;;;;;;;;;6.47;67.88;98189.78;5046989;28;20023;-59
2024/02/06 01:55:54;;;;;;;;;;;;;;;6.46;68.07;98185.47;5043566;28;20008;-58
2024/02/06 01:58:42;;;;;;;;;;;;;;;6.49;68.02;98180.31;5047201;28;19972;-57
2024/02/06 02:01:30;;;;;;;;;;;;;;;6.49;67.93;98182.22;5046250;28;20452;-58
2024/02/06 02:04:19;;;;;;;;;;;;;;;6.45;68.08;98176.56;5049097;28;19944;-58
2024/02/06 02:07:08;;;;;;;;;;;;;;;6.43;68.19;98181.44;5045169;28;19931;-58
2024/02/06 02:09:57;;;;;;;;;;;;;;;6.45;68.37;98181.16;5048243;28;20294;-58
2024/02/06 02:12:45;;;;;;;;;;;;;;;6.40;68.59;98167.69;5052056;28;20015;-58
2024/02/06 02:15:33;;;;;;;;;;;;;;;6.41;68.57;98166.59;5048405;28;19932;-59
2024/02/06 02:18:21;;;;;;;;;;;;;;;6.50;68.01;98167.66;5048191;28;19931;-58
2024/02/06 02:21:10;;;;;;;;;;;;;;;6.56;67.95;98171.94;5048807;28;19925;-59
2024/02/06 02:23:58;;;;;;;;;;;;;;;6.49;67.49;98179.50;5046483;28;19929;-58
2024/02/06 02:26:46;;;;;;;;;;;;;;;6.42;68.00;98165.53;5046626;28;19932;-57
2024/02/06 02:29:34;;;;;;;;;;;;;;;6.41;67.94;98170.13;5047634;28;19928;-59
2024/02/06 02:32:22;;;;;;;;;;;;;;;6.36;68.02;98169.34;5050854;28;19925;-58
2024/02/06 02:35:12;;;;;;;;;;;;;;;6.44;67.71;98168.75;5048329;28;20277;-59
2024/02/06 02:38:02;;;;;;;;;;;;;;;6.45;67.50;98175.78;5047658;28;19941;-58
2024/02/06 02:40:51;;;;;;;;;;;;;;;6.46;67.37;98166.59;5048514;28;19987;-58
2024/02/06 02:43:39;;;;;;;;;;;;;;;6.45;67.45;98163.09;5042645;28;20271;-57
2024/02/06 02:46:27;;;;;;;;;;;;;;;6.35;67.32;98155.03;5051810;28;19929;-58
2024/02/06 02:49:15;;;;;;;;;;;;;;;6.24;67.08;98156.97;5047037;28;19925;-58
2024/02/06 02:52:04;;;;;;;;;;;;;;;6.33;67.11;98151.00;5045468;28;20374;-58
2024/02/06 02:54:53;;;;;;;;;;;;;;;6.32;67.36;98144.78;5046959;28;19932;-58
2024/02/06 02:57:41;;;;;;;;;;;;;;;6.36;67.42;98143.16;5047020;28;20491;-58
2024/02/06 03:00:31;;;;;;;;;;;;;;;6.37;67.12;98149.34;5047272;28;19932;-59
2024/02/06 03:03:19;;;;;;;;;;;;;;;6.38;66.93;98148.25;5047620;28;19990;-58
2024/02/06 03:06:08;;;;;;;;;;;;;;;6.29;67.49;98143.47;5047527;28;19931;-62
2024/02/06 03:08:56;;;;;;;;;;;;;;;6.32;67.15;98160.16;5050824;28;19932;-58
2024/02/06 03:11:46;;;;;;;;;;;;;;;6.22;67.68;98142.13;5050561;28;19924;-58
2024/02/06 03:14:37;;;;;;;;;;;;;;;6.25;67.34;98150.50;5044806;28;19924;-58
2024/02/06 03:17:25;;;;;;;;;;;;;;;6.28;67.57;98149.94;5049088;28;19925;-57
2024/02/06 03:20:15;;;;;;;;;;;;;;;6.35;67.07;98146.13;5045033;28;20371;-58
2024/02/06 03:23:04;;;;;;;;;;;;;;;6.33;67.44;98151.00;5044691;28;19924;-61
2024/02/06 03:25:52;;;;;;;;;;;;;;;6.32;67.29;98139.38;5046010;28;19925;-58
2024/02/06 03:28:41;;;;;;;;;;;;;;;6.27;67.28;98142.91;5048723;28;20054;-58
2024/02/06 03:31:29;;;;;;;;;;;;;;;6.27;67.77;98142.09;5045947;28;19932;-60
2024/02/06 03:34:17;;;;;;;;;;;;;;;6.23;67.82;98139.19;5046235;28;20011;-58
2024/02/06 03:37:05;;;;;;;;;;;;;;;6.23;67.52;98147.28;5047635;28;19925;-58
2024/02/06 03:39:54;;;;;;;;;;;;;;;6.25;67.68;98155.88;5048549;28;19932;-57
2024/02/06 03:42:41;;;;;;;;;;;;;;;6.27;67.51;98153.72;5042489;28;19924;-57
2024/02/06 03:45:31;;;;;;;;;;;;;;;6.20;68.03;98160.50;5048564;28;19925;-60
2024/02/06 03:48:21;;;;;;;;;;;;;;;6.22;68.09;98161.81;5044780;28;19933;-61
2024/02/06 03:51:09;;;;;;;;;;;;;;;6.24;68.01;98156.16;5045608;28;19928;-59
2024/02/06 03:53:58;;;;;;;;;;;;;;;6.27;67.82;98159.09;5046264;28;22330;-59
2024/02/06 03:56:47;;;;;;;;;;;;;;;6.32;67.71;98160.16;5046526;28;19924;-59
2024/02/06 03:59:36;;;;;;;;;;;;;;;6.29;67.70;98158.84;5034067;28;20397;-58
2024/02/06 04:02:25;;;;;;;;;;;;;;;6.28;67.86;98152.66;5046361;28;20370;-58
2024/02/06 04:05:13;;;;;;;;;;;;;;;6.26;68.09;98157.50;5044784;28;19925;-59
2024/02/06 04:08:01;;;;;;;;;;;;;;;6.27;68.09;98153.72;5043081;28;20127;-58
2024/02/06 04:10:49;;;;;;;;;;;;;;;6.35;67.86;98149.63;5046302;28;19938;-60
2024/02/06 04:13:37;;;;;;;;;;;;;;;6.28;68.01;98155.34;5046192;28;19929;-59
2024/02/06 04:16:26;;;;;;;;;;;;;;;6.25;68.00;98161.28;5047346;28;19925;-58
2024/02/06 04:19:15;;;;;;;;;;;;;;;6.28;67.91;98160.75;5039641;28;19932;-58
2024/02/06 04:22:03;;;;;;;;;;;;;;;6.27;67.89;98163.69;5046671;28;20263;-59
2024/02/06 04:24:52;;;;;;;;;;;;;;;6.24;67.97;98167.78;5044626;28;20337;-57
2024/02/06 04:27:40;;;;;;;;;;;;;;;6.22;68.21;98151.03;5032141;28;20497;-59
2024/02/06 04:30:28;;;;;;;;;;;;;;;6.22;68.28;98155.63;5047335;28;19924;-57
2024/02/06 04:33:17;;;;;;;;;;;;;;;6.30;68.15;98163.16;5044481;28;19933;-58
2024/02/06 04:36:07;;;;;;;;;;;;;;;6.27;68.20;98148.31;5043956;28;19924;-58
2024/02/06 04:38:58;;;;;;;;;;;;;;;6.32;67.98;98160.97;5043294;28;19928;-58
2024/02/06 04:41:46;;;;;;;;;;;;;;;6.22;68.15;98151.03;5044527;28;19925;-58
2024/02/06 04:44:34;;;;;;;;;;;;;;;6.40;68.21;98154.22;5049258;28;19925;-59
2024/02/06 04:47:22;;;;;;;;;;;;;;;6.30;68.16;98153.16;5044090;28;20363;-58
2024/02/06 04:50:11;;;;;;;;;;;;;;;6.37;68.04;98146.66;5045367;28;19940;-58
2024/02/06 04:53:03;;;;;;;;;;;;;;;6.38;68.40;98146.38;5039010;28;19929;-59
2024/02/06 04:55:53;;;;;;;;;;;;;;;6.38;68.39;98150.97;5040463;28;20367;-58
2024/02/06 04:58:41;;;;;;;;;;;;;;;6.34;68.64;98150.72;5037976;28;19925;-58
2024/02/06 05:01:31;;;;;;;;;;;;;;;6.28;68.47;98139.16;5045947;28;19925;-65
2024/02/06 05:04:20;;;;;;;;;;;;;;;6.32;68.84;98154.78;5037781;28;19925;-58
2024/02/06 05:07:08;;;;;;;;;;;;;;;6.37;68.61;98152.84;5046270;28;19932;-58
2024/02/06 05:09:58;;;;;;;;;;;;;;;6.34;68.86;98148.03;5045699;28;20019;-57
2024/02/06 05:12:46;;;;;;;;;;;;;;;6.39;69.19;98152.56;5044882;28;19975;-57
2024/02/06 05:15:34;;;;;;;;;;;;;;;6.38;68.89;98140.97;5043664;28;19929;-58
2024/02/06 05:18:22;;;;;;;;;;;;;;;6.54;68.75;98142.50;5047409;28;19925;-57
2024/02/06 05:21:10;;;;;;;;;;;;;;;6.55;68.94;98144.13;5045396;28;19931;-58
2024/02/06 05:23:59;;;;;;;;;;;;;;;6.62;68.57;98138.41;5049365;28;20019;-58
2024/02/06 05:26:48;;;;;;;;;;;;;;;6.59;69.01;98149.75;5044517;28;20379;-58
2024/02/06 05:29:36;;;;;;;;;;;;;;;6.70;68.52;98143.22;5043770;28;19964;-58
2024/02/06 05:32:24;;;;;;;;;;;;;;;6.68;68.91;98134.59;5039807;28;20402;-58
2024/02/06 05:35:13;;;;;;;;;;;;;;;6.60;69.38;98145.16;5043149;28;19946;-59
2024/02/06 05:38:02;;;;;;;;;;;;;;;6.65;69.64;98143.25;5034425;28;20386;-58
2024/02/06 05:40:50;;;;;;;;;;;;;;;6.57;69.72;98133.84;5045036;28;19932;-57
2024/02/06 05:43:39;;;;;;;;;;;;;;;6.68;69.91;98131.09;5046421;28;19961;-58
2024/02/06 05:46:27;;;;;;;;;;;;;;;6.67;69.71;98141.09;5043559;28;19925;-59
2024/02/06 05:49:16;;;;;;;;;;;;;;;6.65;70.23;98139.72;5045201;28;20374;-58
2024/02/06 05:52:04;;;;;;;;;;;;;;;6.53;70.68;98143.59;5042142;28;19925;-58
2024/02/06 05:54:53;;;;;;;;;;;;;;;6.54;70.95;98142.50;5041423;28;20397;-60
2024/02/06 05:57:41;;;;;;;;;;;;;;;6.34;71.73;98136.41;5042161;28;20062;-59
2024/02/06 06:00:31;;;;;;;;;;;;;;;6.47;71.26;98136.59;5037366;28;20730;-58
2024/02/06 06:03:19;;;;;;;;;;;;;;;6.29;72.35;98119.19;5041224;28;19929;-58
2024/02/06 06:06:08;;;;;;;;;;;;;;;6.40;71.84;98124.53;5042326;28;19999;-58
2024/02/06 06:08:57;;;;;;;;;;;;;;;6.50;71.12;98124.47;5041424;28;19936;-60
2024/02/06 06:11:45;;;;;;;;;;;;;;;6.43;72.17;98123.94;5048173;28;19924;-58
2024/02/06 06:14:33;;;;;;;;;;;;;;;6.52;71.72;98116.88;5043423;28;19938;-58
2024/02/06 06:17:22;;;;;;;;;;;;;;;6.50;71.48;98119.88;5044496;28;19944;-58
2024/02/06 06:20:11;;;;;;;;;;;;;;;6.45;71.78;98116.41;5032490;28;20011;-58
2024/02/06 06:22:59;;;;;;;;;;;;;;;6.63;71.01;98112.22;5043639;28;19932;-59
2024/02/06 06:25:49;;;;;;;;;;;;;;;6.76;70.40;98117.78;5039154;28;19924;-58
2024/02/06 06:28:37;;;;;;;;;;;;;;;6.89;70.36;98110.94;5035954;28;19986;-59
2024/02/06 06:31:25;;;;;;;;;;;;;;;6.80;70.00;98115.34;5042668;28;19994;-59
2024/02/06 06:34:14;;;;;;;;;;;;;;;6.99;69.32;98112.78;5045290;28;20378;-60
2024/02/06 06:37:02;;;;;;;;;;;;;;;6.99;69.29;98104.66;5045783;28;19925;-58
2024/02/06 06:39:50;;;;;;;;;;;;;;;6.91;69.14;98103.34;5043284;28;20500;-59
2024/02/06 06:42:38;;;;;;;;;;;;;;;6.98;69.28;98103.06;5043337;28;19925;-58
2024/02/06 06:45:26;;;;;;;;;;;;;;;6.80;69.35;98099.94;5044680;28;19925;-58
2024/02/06 06:48:14;;;;;;;;;;;;;;;6.88;69.44;98105.84;5024661;28;20068;-58
2024/02/06 06:51:04;;;;;;;;;;;;;;;6.91;69.21;98105.25;5049198;28;19929;-61
2024/02/06 06:53:52;;;;;;;;;;;;;;;6.90;69.62;98101.75;5042320;28;19946;-58
2024/02/06 06:56:40;;;;;;;;;;;;;;;6.90;69.08;98095.56;5051447;28;19925;-59
2024/02/06 06:59:28;;;;;;;;;;;;;;;6.83;69.58;98101.28;5052145;28;20047;-58
2024/02/06 07:02:17;;;;;;;;;;;;;;;6.80;69.66;98097.22;5050449;28;19931;-58
2024/02/06 07:05:05;;;;;;;;;;;;;;;6.82;69.69;98099.69;5049344;28;20364;-64
2024/02/06 07:07:54;;;;;;;;;;;;;;;6.74;69.90;98105.66;5047483;28;20388;-61
2024/02/06 07:10:42;;;;;;;;;;;;;;;6.76;69.51;98106.97;5049373;28;20007;-60
2024/02/06 07:13:30;;;;;;;;;;;;;;;6.77;69.35;98097.81;5046488;28;20566;-59
2024/02/06 07:16:18;;;;;;;;;;;;;;;6.66;69.97;98117.03;5046265;28;19925;-58
2024/02/06 07:19:08;;;;;;;;;;;;;;;6.72;69.76;98105.16;5049320;28;20062;-59
2024/02/06 07:21:56;;;;;;;;;;;;;;;6.70;69.72;98102.72;5053303;28;19925;-71
2024/02/06 07:24:46;;;;;;;;;;;;;;;6.72;69.96;98089.75;5054480;28;19929;-60
2024/02/06 07:27:33;;;;;;;;;;;;;;;6.80;69.79;98102.63;5053158;28;19925;-60
2024/02/06 07:30:22;;;;;;;;;;;;;;;6.82;69.50;98100.47;5048643;28;20407;-58
2024/02/06 07:33:17;;;;;;;;;;;;;;;6.80;69.65;98096.44;5049975;28;20282;-60
2024/02/06 07:36:05;;;;;;;;;;;;;;;6.82;69.42;98105.88;5044552;28;19929;-59
2024/02/06 07:38:53;;;;;;;;;;;;;;;6.86;69.08;98105.28;5044901;28;19929;-58
2024/02/06 07:41:43;;;;;;;;;;;;;;;6.81;69.16;98098.03;5043989;28;19924;-59
2024/02/06 07:44:31;;;;;;;;;;;;;;;6.70;69.27;98110.81;5049537;28;19928;-58
2024/02/06 07:47:19;;;;;;;;;;;;;;;6.83;69.32;98104.78;5047655;28;20305;-59
2024/02/06 07:50:08;;;;;;;;;;;;;;;6.79;68.94;98106.44;5042059;28;19940;-58
2024/02/06 07:52:56;;;;;;;;;;;;;;;6.83;69.13;98117.47;5041003;28;19952;-58
2024/02/06 07:55:44;;;;;;;;;;;;;;;6.83;68.76;98102.09;5042375;28;20063;-58
2024/02/06 07:58:33;;;;;;;;;;;;;;;6.88;68.85;98114.75;5041985;28;19932;-58
2024/02/06 08:01:21;;;;;;;;;;;;;;;6.86;68.62;98106.09;5041458;28;19925;-58
2024/02/06 08:04:09;;;;;;;;;;;;;;;6.90;68.56;98107.16;5041915;28;19932;-59
2024/02/06 08:07:01;;;;;;;;;;;;;;;6.82;68.77;98116.69;5041543;28;19935;-59
2024/02/06 08:09:49;;;;;;;;;;;;;;;6.92;68.91;98112.25;5039358;28;19929;-58
2024/02/06 08:12:37;;;;;;;;;;;;;;;7.11;67.97;98107.78;5042698;28;19979;-58
2024/02/06 08:15:26;;;;;;;;;;;;;;;7.13;67.79;98105.59;5041237;28;20390;-59
2024/02/06 08:18:14;;;;;;;;;;;;;;;7.12;67.56;98109.41;5043464;28;19925;-62
2024/02/06 08:21:02;;;;;;;;;;;;;;;7.22;67.31;98103.91;5043941;28;19928;-59
2024/02/06 08:23:51;;;;;;;;;;;;;;;7.19;67.23;98103.66;5045806;28;19939;-58
2024/02/06 08:26:39;;;;;;;;;;;;;;;7.30;66.94;98106.00;5047229;28;19925;-58
2024/02/06 08:29:28;;;;;;;;;;;;;;;7.29;66.79;98107.06;5047590;28;19932;-58
2024/02/06 08:32:18;;;;;;;;;;;;;;;7.22;67.01;98103.09;5044611;28;20334;-58
2024/02/06 08:35:06;;;;;;;;;;;;;;;7.28;66.81;98101.97;5045748;28;20027;-59
2024/02/06 08:37:54;;;;;;;;;;;;;;;7.21;67.04;98091.50;5046234;28;19925;-59
2024/02/06 08:40:43;;;;;;;;;;;;;;;7.24;66.71;98080.09;5046794;28;19924;-58
2024/02/06 08:43:31;;;;;;;;;;;;;;;7.39;67.10;98092.66;5043838;28;19932;-58
2024/02/06 08:46:28;;;;;;;;;;;;;;;7.41;66.16;98073.47;5041194;28;19925;-58
2024/02/06 08:49:18;;;;;;;;;;;;;;;7.41;66.09;98084.28;5046716;28;19925;-58
2024/02/06 08:52:07;;;;;;;;;;;;;;;7.37;66.21;98088.66;5043736;28;19970;-59
2024/02/06 08:54:55;;;;;;;;;;;;;;;7.41;66.16;98095.09;5046038;28;19928;-59
2024/02/06 08:57:43;;;;;;;;;;;;;;;7.31;66.39;98079.78;5048236;28;19925;-59
2024/02/06 09:00:31;;;;;;;;;;;;;;;7.22;66.12;98087.69;5046664;28;19929;-59
2024/02/06 09:03:19;;;;;;;;;;;;;;;7.28;66.67;98094.66;5044099;28;20386;-58
2024/02/06 09:06:09;;;;;;;;;;;;;;;7.39;66.18;98098.06;5044778;28;20070;-58
2024/02/06 09:08:58;;;;;;;;;;;;;;;7.43;66.21;98093.72;5047046;28;19925;-58
2024/02/06 09:11:46;;;;;;;;;;;;;;;7.37;66.28;98096.75;5044063;28;19929;-58
2024/02/06 09:14:35;;;;;;;;;;;;;;;7.37;66.12;98099.47;5050131;28;19932;-60
2024/02/06 09:17:27;;;;;;;;;;;;;;;7.44;66.42;98094.50;5043026;28;19932;-58
2024/02/06 09:20:16;;;;;;;;;;;;;;;7.56;65.79;98084.09;5048099;28;20295;-60
2024/02/06 09:23:06;;;;;;;;;;;;;;;7.66;65.54;98078.56;5040509;28;19925;-58
2024/02/06 09:25:54;;;;;;;;;;;;;;;7.78;65.22;98091.72;5043236;28;19932;-60
2024/02/06 09:28:42;;;;;;;;;;;;;;;7.64;65.36;98082.69;5048533;28;19924;-57
2024/02/06 09:31:30;;;;;;;;;;;;;;;7.70;65.22;98082.31;5039572;28;19947;-59
2024/02/06 09:34:18;;;;;;;;;;;;;;;7.55;65.45;98077.88;5049852;28;19932;-57
2024/02/06 09:37:06;;;;;;;;;;;;;;;7.54;65.43;98078.19;5036936;28;19925;-56
2024/02/06 09:39:56;;;;;;;;;;;;;;;7.69;65.22;98075.31;5044585;28;20055;-59
2024/02/06 09:42:44;;;;;;;;;;;;;;;7.73;64.96;98079.06;5045663;28;20401;-57
2024/02/06 09:45:33;;;;;;;;;;;;;;;7.81;65.22;98075.69;5044912;28;20067;-58
2024/02/06 09:48:24;;;;;;;;;;;;;;;7.88;64.80;98070.75;5042472;28;19925;-57
2024/02/06 09:51:12;;;;;;;;;;;;;;;7.95;64.46;98070.41;5049530;28;19936;-57
2024/02/06 09:54:01;;;;;;;;;;;;;;;7.99;64.72;98059.78;5038159;28;19932;-56
2024/02/06 09:56:50;;;;;;;;;;;;;;;8.12;64.50;98062.59;5041998;28;19925;-58
2024/02/06 09:59:38;;;;;;;;;;;;;;;8.07;64.40;98064.56;5047504;28;19925;-56
2024/02/06 10:02:26;;;;;;;;;;;;;;;8.17;64.17;98075.25;5042802;28;19968;-57
2024/02/06 10:05:16;;;;;;;;;;;;;;;8.17;64.25;98069.84;5039406;28;19929;-58
2024/02/06 10:08:04;;;;;;;;;;;;;;;8.29;63.90;98067.50;5052487;28;19928;-57
2024/02/06 10:10:52;;;;;;;;;;;;;;;8.19;63.91;98072.25;5051526;28;19924;-57
2024/02/06 10:13:41;;;;;;;;;;;;;;;8.26;63.60;98070.81;5047533;28;19932;-57
2024/02/06 10:16:30;;;;;;;;;;;;;;;8.32;63.94;98066.94;5049586;28;20801;-57
2024/02/06 10:19:18;;;;;;;;;;;;;;;8.30;63.48;98074.50;5048494;28;19929;-57
2024/02/06 10:22:08;;;;;;;;;;;;;;;8.17;64.03;98072.53;5051533;28;19924;-57
2024/02/06 10:25:00;;;;;;;;;;;;;;;8.32;63.47;98083.16;5043430;28;20588;-57
2024/02/06 10:27:56;;;;;;;;;;;;;;;8.35;63.52;98077.16;5047865;28;19925;-56
2024/02/06 10:30:45;;;;;;;;;;;;;;;8.49;62.85;98077.28;5046798;28;19936;-57
2024/02/06 10:33:33;;;;;;;;;;;;;;;8.47;62.86;98068.66;5053159;28;20019;-58
2024/02/06 10:36:22;;;;;;;;;;;;;;;8.45;63.06;98061.91;5046173;28;20464;-57
2024/02/06 10:39:10;;;;;;;;;;;;;;;8.54;62.74;98069.06;5052028;28;20404;-57
2024/02/06 10:41:59;;;;;;;;;;;;;;;8.41;63.02;98058.97;5041422;28;20412;-57
2024/02/06 10:44:56;;;;;;;;;;;;;;;8.47;62.75;98056.97;5048475;28;19925;-57
2024/02/06 10:47:57;;;;;;;;;;;;;;;8.09;63.82;98056.94;5050883;28;19929;-57
2024/02/06 10:50:45;;;;;;;;;;;;;;;8.37;63.61;98061.47;5050044;28;19925;-58
2024/02/06 10:53:34;;;;;;;;;;;;;;;8.42;62.83;98048.97;5051960;28;19924;-57
2024/02/06 10:56:22;;;;;;;;;;;;;;;8.40;62.79;98055.44;5050251;28;19951;-58
2024/02/06 10:59:10;;;;;;;;;;;;;;;8.46;63.02;98044.53;5050942;28;20017;-57
2024/02/06 11:01:58;;;;;;;;;;;;;;;8.50;62.77;98040.97;5051625;28;19932;-57
2024/02/06 11:04:48;;;;;;;;;;;;;;;8.53;62.68;98055.84;5048861;28;20016;-56
2024/02/06 11:07:38;;;;;;;;;;;;;;;8.62;62.54;98043.22;5050194;28;19933;-57
2024/02/06 11:10:28;;;;;;;;;;;;;;;8.71;61.95;98025.19;5045636;28;19928;-57
2024/02/06 11:13:19;;;;;;;;;;;;;;;8.71;61.89;98024.41;5047950;28;19952;-57
2024/02/06 11:16:08;;;;;;;;;;;;;;;8.58;61.88;98015.13;5047562;28;19925;-57
2024/02/06 11:18:56;;;;;;;;;;;;;;;8.62;62.02;98016.13;5047688;28;20370;-57
2024/02/06 11:21:49;;;;;;;;;;;;;;;8.43;62.40;98016.16;5046389;28;19925;-58
2024/02/06 11:24:37;;;;;;;;;;;;;;;8.43;62.14;98020.78;5030451;28;19939;-58
2024/02/06 11:27:27;;;;;;;;;;;;;;;8.49;62.49;98011.47;5050200;28;19932;-57
2024/02/06 11:30:15;;;;;;;;;;;;;;;8.63;61.99;97999.59;5050161;28;19947;-57
2024/02/06 11:33:04;;;;;;;;;;;;;;;8.62;61.93;97999.88;5050700;28;20370;-57
2024/02/06 11:35:52;;;;;;;;;;;;;;;8.56;62.29;97998.38;5048830;28;19925;-57
2024/02/06 11:38:43;;;;;;;;;;;;;;;8.70;61.97;97999.22;5051404;28;19924;-57
2024/02/06 11:41:30;;;;;;;;;;;;;;;8.75;61.70;97993.72;5045817;28;19925;-59
2024/02/06 11:44:23;;;;;;;;;;;;;;;8.77;61.53;97988.78;5040446;28;19936;-59
2024/02/06 11:47:19;;;;;;;;;;;;;;;8.73;61.44;97985.06;5051287;28;19925;-58
2024/02/06 11:50:08;;;;;;;;;;;;;;;8.85;61.45;97982.72;5048584;28;19956;-58
2024/02/06 11:53:02;;;;;;;;;;;;;;;8.91;61.54;97973.38;5041829;28;20301;-57
2024/02/06 11:55:51;;;;;;;;;;;;;;;8.98;61.08;97972.19;5043598;28;20337;-57
2024/02/06 11:58:40;;;;;;;;;;;;;;;9.02;60.78;97962.34;5049510;28;19971;-57
2024/02/06 12:01:29;;;;;;;;;;;;;;;9.19;60.15;97973.41;5043516;28;19925;-57
2024/02/06 12:04:22;;;;;;;;;;;;;;;9.04;60.69;97973.69;5049640;28;20301;-60
2024/02/06 12:07:11;;;;;;;;;;;;;;;9.06;60.38;97972.31;5050093;28;19925;-57
2024/02/06 12:09:59;;;;;;;;;;;;;;;9.21;60.32;97963.06;5049657;28;19933;-57
2024/02/06 12:12:50;;;;;;;;;;;;;;;9.32;59.77;97952.81;5046890;28;20344;-58
2024/02/06 12:15:39;;;;;;;;;;;;;;;9.34;59.71;97956.84;5047342;28;20338;-57
2024/02/06 12:18:27;;;;;;;;;;;;;;;9.31;59.96;97952.00;5048228;28;19936;-57
2024/02/06 12:21:19;;;;;;;;;;;;;;;9.39;59.17;97954.03;5048058;28;19931;-57
2024/02/06 12:24:08;;;;;;;;;;;;;;;9.37;59.66;97950.00;5046935;28;19932;-58
2024/02/06 12:27:05;;;;;;;;;;;;;;;9.42;59.53;97950.69;5046870;28;19929;-59
2024/02/06 12:29:56;;;;;;;;;;;;;;;9.52;59.38;97946.19;5049094;28;20394;-57
2024/02/06 12:32:44;;;;;;;;;;;;;;;9.57;59.23;97943.38;5049205;28;19979;-57
2024/02/06 12:35:33;;;;;;;;;;;;;;;9.54;59.14;97944.00;5046125;28;19936;-57
2024/02/06 12:38:21;;;;;;;;;;;;;;;9.57;59.06;97938.75;5049876;28;19928;-57
2024/02/06 12:44:24;;;;;;;;;;;;;;;9.61;58.68;97922.66;5047817;28;19924;-57
2024/02/06 12:47:29;;;;;;;;;;;;;;;9.58;58.74;97939.53;5047754;28;19924;-57
2024/02/06 12:50:17;;;;;;;;;;;;;;;9.41;58.81;97932.81;5043397;28;19932;-58
2024/02/06 12:53:07;;;;;;;;;;;;;;;9.36;59.34;97922.09;5047242;28;20481;-57
2024/02/06 12:55:55;;;;;;;;;;;;;;;9.46;59.30;97918.38;5043413;28;19965;-56
2024/02/06 12:58:45;;;;;;;;;;;;;;;9.47;58.69;97911.03;5045320;28;20397;-58
2024/02/06 13:01:34;;;;;;;;;;;;;;;9.55;58.94;97923.88;5039165;28;20062;-56
2024/02/06 13:04:24;;;;;;;;;;;;;;;9.60;58.97;97915.66;5041660;28;19929;-57
2024/02/06 13:07:20;;;;;;;;;;;;;;;9.65;58.72;97916.34;5043458;28;20022;-58
2024/02/06 13:10:09;;;;;;;;;;;;;;;9.75;58.24;97909.88;5048560;28;20525;-59
2024/02/06 13:13:03;;;;;;;;;;;;;;;9.85;58.23;97914.25;5045920;28;20387;-57
2024/02/06 13:15:51;;;;;;;;;;;;;;;9.80;57.99;97900.81;5046954;28;20394;-57
2024/02/06 13:18:39;;;;;;;;;;;;;;;9.85;57.62;97885.22;5046020;28;20075;-56
2024/02/06 13:21:39;;;;;;;;;;;;;;;9.86;57.67;97886.84;5043307;28;20390;-56
2024/02/06 13:24:27;;;;;;;;;;;;;;;9.79;57.91;97891.88;5044337;28;19925;-57
2024/02/06 13:27:16;;;;;;;;;;;;;;;9.89;57.95;97877.25;5045252;28;19925;-57
2024/02/06 13:30:04;;;;;;;;;;;;;;;9.88;57.55;97879.19;5047321;28;19929;-56
2024/02/06 13:32:53;;;;;;;;;;;;;;;9.93;57.47;97876.34;5041219;28;19929;-56
2024/02/06 13:35:41;;;;;;;;;;;;;;;9.86;57.86;97873.28;5042338;28;19933;-58
2024/02/06 13:38:31;;;;;;;;;;;;;;;9.88;57.54;97871.03;5044388;28;19936;-56
2024/02/06 13:41:19;;;;;;;;;;;;;;;9.89;57.47;97872.63;5045123;28;20021;-56
2024/02/06 13:44:07;;;;;;;;;;;;;;;10.01;57.28;97865.84;5048190;28;19985;-56
2024/02/06 13:46:56;;;;;;;;;;;;;;;9.88;57.56;97865.59;5053553;28;19943;-61
2024/02/06 13:49:44;;;;;;;;;;;;;;;9.88;57.45;97845.81;5052616;28;19937;-56
2024/02/06 13:52:32;;;;;;;;;;;;;;;9.83;57.85;97843.22;5052782;28;19929;-63
2024/02/06 13:55:21;;;;;;;;;;;;;;;9.87;57.66;97838.78;5048155;28;20484;-57
2024/02/06 13:58:10;;;;;;;;;;;;;;;9.87;57.53;97850.44;5051894;28;20002;-56
2024/02/06 14:00:58;;;;;;;;;;;;;;;9.68;58.00;97841.66;5045254;28;19978;-57
2024/02/06 14:03:46;;;;;;;;;;;;;;;9.73;58.00;97857.03;5041505;28;19933;-59
2024/02/06 14:06:34;;;;;;;;;;;;;;;9.71;58.15;97862.75;5042804;28;19925;-57
2024/02/06 14:09:23;;;;;;;;;;;;;;;9.70;58.14;97866.59;5049797;28;19928;-55
2024/02/06 14:12:12;;;;;;;;;;;;;;;9.65;58.29;97858.56;5047046;28;20415;-55
2024/02/06 14:15:00;;;;;;;;;;;;;;;9.74;58.01;97856.72;5047788;28;20007;-56
2024/02/06 14:17:48;;;;;;;;;;;;;;;9.76;58.23;97849.09;5049502;28;20012;-55
2024/02/06 14:20:36;;;;;;;;;;;;;;;9.81;58.04;97851.69;5045705;28;19932;-56
2024/02/06 14:23:24;;;;;;;;;;;;;;;9.84;57.94;97844.81;5051658;28;20022;-56
2024/02/06 14:26:14;;;;;;;;;;;;;;;9.80;58.19;97846.53;5049359;28;19933;-56
2024/02/06 14:29:04;;;;;;;;;;;;;;;9.90;57.99;97838.97;5052559;28;19928;-56
2024/02/06 14:31:52;;;;;;;;;;;;;;;9.90;57.45;97833.53;5047954;28;19924;-59
2024/02/06 14:34:40;;;;;;;;;;;;;;;9.85;57.81;97830.94;5047479;28;19925;-57
2024/02/06 14:37:28;;;;;;;;;;;;;;;9.87;57.72;97833.38;5051005;28;19924;-56
2024/02/06 14:40:17;;;;;;;;;;;;;;;9.85;57.94;97838.28;5045221;28;19924;-55
2024/02/06 14:43:07;;;;;;;;;;;;;;;9.92;57.90;97833.25;5049322;28;19925;-56
2024/02/06 14:45:56;;;;;;;;;;;;;;;9.94;57.76;97826.38;5044426;28;19931;-56
2024/02/06 14:48:45;;;;;;;;;;;;;;;9.94;57.84;97823.66;5044594;28;19925;-56
2024/02/06 14:51:33;;;;;;;;;;;;;;;10.02;57.56;97818.63;5049475;28;19928;-56
2024/02/06 14:54:22;;;;;;;;;;;;;;;9.74;57.78;97824.16;5052833;28;19932;-55
2024/02/06 14:57:10;;;;;;;;;;;;;;;9.85;57.84;97819.28;5041702;28;20301;-56
2024/02/06 14:59:58;;;;;;;;;;;;;;;9.90;57.71;97816.44;5047644;28;19931;-58